Time;durP1;ratioP1;P1;durP2;ratioP2;P2;SDS_P1;SDS_P2;PMS_P1;PMS_P2;Temp;Humidity;BMP_temperature;BMP_pressure;BME280_temperature;BME280_humidity;BME280_pressure;Samples;Min_cycle;Max_cycle;Signal;HPM_P1;HPM_P2
2023/02/20 00:02:57;;;;;;;;;;;;;;;;;;;;;
2023/02/20 00:06:38;;;;;;;;;;;;;;;;;;;;;
2023/02/20 00:10:23;;;;;;;13.50;5.40;;;;;;;-0.78;75.78;100965.35;124793;1313;115341;-63
2023/02/20 00:14:08;;;;;;;;;;;;;;;;;;;;;
2023/02/20 00:18:01;;;;;;;;;;;;;;;;;;;;;
2023/02/20 00:21:56;;;;;;;;;;;;;;;;;;;;;
2023/02/20 00:25:43;;;;;;;;;;;;;;;;;;;;;
2023/02/20 00:30:04;;;;;;;16.10;6.20;;;;;;;-0.67;76.67;100934.73;126335;1296;636428;-64
2023/02/20 00:33:41;;;;;;;15.80;5.80;;;;;;;-0.60;76.86;100921.09;128083;1290;127382;-64
2023/02/20 00:37:38;;;;;;;11.40;4.90;;;;;;;-0.53;76.78;100925.52;127527;1303;114858;-63
2023/02/20 00:41:21;;;;;;;;;;;;;;;;;;;;;
2023/02/20 00:44:54;;;;;;;;;;;;;;;;;;;;;
2023/02/20 00:48:49;;;;;;;11.30;7.00;;;;;;;-0.33;77.05;100908.44;126209;1310;115369;-66
2023/02/20 00:52:40;;;;;;;16.80;6.80;;;;;;;-0.27;77.27;100913.03;126175;1316;115423;-65
2023/02/20 00:56:41;;;;;;;;;;;;;;;;;;;;;
2023/02/20 01:00:28;;;;;;;16.40;6.20;;;;;;;-0.12;77.02;100917.14;123755;1313;115410;-65
2023/02/20 01:04:14;;;;;;;;;;;;;;;;;;;;;
2023/02/20 01:12:21;;;;;;;;;;;;;;;;;;;;;
2023/02/20 01:16:05;;;;;;;14.50;6.00;;;;;;;0.20;77.63;100907.77;128292;1295;129016;-65
2023/02/20 01:19:54;;;;;;;10.50;5.80;;;;;;;0.27;77.66;100901.45;128427;1288;116480;-65
2023/02/20 01:23:43;;;;;;;12.10;5.30;;;;;;;0.33;77.49;100897.44;127183;1289;114855;-64
2023/02/20 01:27:23;;;;;;;;;;;;;;;;;;;;;
2023/02/20 01:31:28;;;;;;;10.80;5.00;;;;;;;0.44;77.59;100891.48;126442;1295;114859;-61
2023/02/20 01:35:30;;;;;;;9.50;4.20;;;;;;;0.50;77.49;100886.92;125784;1317;115326;-61
2023/02/20 01:39:11;;;;;;;;;;;;;;;;;;;;;
2023/02/20 01:43:04;;;;;;;10.80;3.90;;;;;;;0.59;77.62;100868.48;124671;1316;115293;-62
2023/02/20 01:51:22;;;;;;;10.30;4.20;;;;;;;0.68;77.75;100850.20;126322;1297;636553;-62
2023/02/20 01:55:21;;;;;;;11.50;4.00;;;;;;;0.67;77.50;100847.04;128120;1282;127966;-62
2023/02/20 01:59:27;;;;;;;7.90;3.10;;;;;;;0.65;77.60;100848.43;127328;1302;115182;-62
2023/02/20 02:03:29;;;;;;;6.70;3.40;;;;;;;0.62;77.43;100847.04;122807;1308;5594689;-62
2023/02/20 02:07:24;;;;;;;11.50;3.30;;;;;;;0.60;77.54;100840.00;125451;1302;114997;-61
2023/02/20 02:11:35;;;;;;;9.30;3.80;;;;;;;0.56;77.50;100833.50;124938;1325;114989;-62
2023/02/20 02:15:29;;;;;;;10.60;3.40;;;;;;;0.51;77.28;100819.61;124281;1313;128712;-62
2023/02/20 02:19:32;;;;;;;9.80;3.60;;;;;;;0.48;77.22;100818.04;123396;1337;115282;-62
2023/02/20 02:23:35;;;;;;;;;;;;;;;;;;;;;
2023/02/20 02:32:12;;;;;;;8.40;3.70;;;;;;;0.43;77.03;100803.09;126121;1304;635084;-64
2023/02/20 02:36:21;;;;;;;12.70;3.80;;;;;;;0.39;77.24;100799.93;129224;1269;128330;-61
2023/02/20 02:40:49;;;;;;;10.90;3.50;;;;;;;0.37;77.14;100803.08;129011;1267;115333;-61
2023/02/20 02:44:58;;;;;;;6.80;3.50;;;;;;;0.35;77.33;100791.48;124768;1273;5612515;-62
2023/02/20 02:56:48;;;;;;;11.00;4.30;;;;;;;0.27;77.38;100798.52;127053;1305;114812;-63
2023/02/20 03:00:43;;;;;;;;;;;;;;;;;;;;;
2023/02/20 03:04:31;;;;;;;8.90;4.30;;;;;;;0.23;77.30;100779.73;126002;1311;115019;-63
2023/02/20 03:08:24;;;;;;;9.30;3.70;;;;;;;0.21;77.17;100771.64;125821;1317;114881;-63
2023/02/20 03:12:13;;;;;;;11.90;4.10;;;;;;;0.20;77.31;100762.85;125307;1303;114957;-62
2023/02/20 03:16:07;;;;;;;;;;;;;;;;;;;;;
2023/02/20 03:19:55;;;;;;;8.70;3.00;;;;;;;0.24;77.37;100758.98;125817;1309;129601;-65
2023/02/20 03:23:56;;;;;;;9.30;3.20;;;;;;;0.28;77.71;100760.74;126016;1293;115275;-64
2023/02/20 03:27:32;;;;;;;8.60;3.60;;;;;;;0.34;77.82;100763.21;125906;1293;114963;-65
2023/02/20 03:44:09;;;;;;;7.60;3.10;;;;;;;0.63;78.25;100769.35;125159;1307;115487;-65
2023/02/20 03:47:36;;;;;;;;;;;;;;;;;;;;;
2023/02/20 03:55:08;;;;;;;6.00;3.20;;;;;;;0.86;77.94;100750.14;124676;1327;115013;-66
2023/02/20 03:58:55;;;;;;;10.00;2.80;;;;;;;0.94;78.07;100750.98;124486;1321;130263;-66
2023/02/20 04:02:53;;;;;;;9.90;2.70;;;;;;;1.03;78.02;100747.63;124292;1311;116485;-66
2023/02/20 04:06:46;;;;;;;4.50;2.20;;;;;;;1.12;78.15;100737.40;124810;1310;115046;-65
2023/02/20 04:10:41;;;;;;;;;;;;;;;;;;;;;
2023/02/20 04:14:28;;;;;;;3.40;1.50;;;;;;;1.28;77.87;100719.91;124850;1301;114903;-65
2023/02/20 04:18:34;;;;;;;;;;;;;;;;;;;;;
2023/02/20 04:22:21;;;;;;;12.60;3.20;;;;;;;1.41;77.71;100702.07;125352;1299;116412;-63
2023/02/20 04:26:24;;;;;;;;;;;;;;;;;;;;;
2023/02/20 04:30:27;;;;;;;8.10;3.40;;;;;;;1.50;77.23;100708.35;126196;1310;115166;-63
2023/02/20 04:34:22;;;;;;;;;;;;;;;;;;;;;
2023/02/20 04:38:12;;;;;;;9.30;2.90;;;;;;;1.57;77.09;100708.52;125924;1293;129272;-63
2023/02/20 04:41:40;;;;;;;;;;;;;;;;;;;;;
2023/02/20 04:45:34;;;;;;;;;;;;;;;;;;;;;
2023/02/20 04:49:17;;;;;;;;;;;;;;;;;;;;;
2023/02/20 04:53:05;;;;;;;;;;;;;;;;;;;;;
2023/02/20 04:56:55;;;;;;;;;;;;;;;;;;;;;
2023/02/20 05:00:57;;;;;;;11.00;3.70;;;;;;;1.78;76.88;100682.65;125192;1307;115534;-64
2023/02/20 05:09:09;;;;;;;;;;;;;;;;;;;;;
2023/02/20 05:13:01;;;;;;;13.20;4.30;;;;;;;1.89;76.73;100667.80;129212;1268;127907;-62
2023/02/20 05:16:57;;;;;;;9.90;3.50;;;;;;;1.92;76.63;100668.27;129049;1286;115257;-61
2023/02/20 05:24:32;;;;;;;;;;;;;;;;;;;;;
2023/02/20 05:28:33;;;;;;;9.30;3.70;;;;;;;2.02;76.53;100657.28;128535;1290;114871;-62
2023/02/20 05:32:30;;;;;;;7.20;3.40;;;;;;;2.07;76.80;100649.48;128732;1290;114910;-62
2023/02/20 05:35:54;;;;;;;;;;;;;;;2.11;76.56;100648.58;127782;1277;128873;-63
2023/02/20 05:43:28;;;;;;;5.40;2.70;;;;;;;2.17;76.56;100650.10;126416;1292;114949;-62
2023/02/20 05:47:14;;;;;;;6.90;3.60;;;;;;;2.20;76.86;100651.30;126336;1293;115036;-62
2023/02/20 05:50:46;;;;;;;7.70;3.60;;;;;;;2.24;76.75;100645.45;126500;1310;114992;-61
2023/02/20 05:54:28;;;;;;;;;;;;;;;;;;;;;
2023/02/20 05:58:08;;;;;;;;;;;;;;;;;;;;;
2023/02/20 06:01:56;;;;;;;;;;;;;;;;;;;;;
2023/02/20 06:05:14;;;;;;;10.00;4.20;;;;;;;2.38;76.65;100639.68;125667;1308;114839;-62
2023/02/20 06:09:15;;;;;;;;;;;;;;;;;;;;;
2023/02/20 06:13:12;;;;;;;;;;;;;;;;;;;;;
2023/02/20 06:16:57;;;;;;;;;;;;;;;2.53;77.05;100630.70;126046;1292;114892;-63
2023/02/20 06:20:43;;;;;;;10.10;4.30;;;;;;;2.58;76.97;100631.00;126612;1304;115432;-63
2023/02/20 06:24:42;;;;;;;7.70;3.90;;;;;;;2.66;77.07;100625.98;127398;1281;114840;-62
2023/02/20 06:28:21;;;;;;;8.90;4.50;;;;;;;2.75;76.93;100626.56;126949;1290;114865;-64
2023/02/20 06:31:45;;;;;;;8.70;4.50;;;;;;;2.86;76.99;100628.90;127223;1286;126773;-64
2023/02/20 06:35:25;;;;;;;;;;;;;;;;;;;;;
2023/02/20 06:39:22;;;;;;;9.60;4.30;;;;;;;3.09;77.23;100610.95;127558;1290;114894;-64
2023/02/20 06:43:14;;;;;;;9.50;4.00;;;;;;;3.23;77.38;100608.49;128110;1286;115139;-63
2023/02/20 06:47:07;;;;;;;;;;;;;;;;;;;;;
2023/02/20 06:50:54;;;;;;;;;;;;;;;;;;;;;
2023/02/20 06:54:39;;;;;;;10.10;4.50;;;;;;;3.66;77.07;100590.70;128763;1291;114739;-64
2023/02/20 06:58:43;;;;;;;11.60;5.20;;;;;;;3.78;77.11;100583.60;127699;1287;114966;-62
2023/02/20 07:02:33;;;;;;;;;;;;;;;;;;;;;
2023/02/20 07:06:28;;;;;;;;;;;;;;;;;;;;;
2023/02/20 07:10:03;;;;;;;8.80;5.90;;;;;;;4.18;76.88;100578.13;125718;1317;129573;-63
2023/02/20 07:13:44;;;;;;;11.60;5.50;;;;;;;4.28;76.81;100573.70;125789;1312;114955;-62
2023/02/20 07:17:43;;;;;;;;;;;;;;;;;;;;;
2023/02/20 07:21:36;;;;;;;9.10;5.30;;;;;;;4.45;76.62;100564.17;124898;1324;115053;-63
2023/02/20 07:25:19;;;;;;;4.90;4.40;;;;;;;4.53;76.54;100556.58;124024;1332;114885;-63
2023/02/20 07:29:43;;;;;;;;;;;;;;;;;;;;;
2023/02/20 07:37:38;;;;;;;8.20;5.60;;;;;;;4.77;76.08;100542.11;128030;1279;114935;-65
2023/02/20 07:41:00;;;;;;;8.40;5.60;;;;;;;4.83;76.28;100524.28;123411;1289;5445544;-64
2023/02/20 07:44:50;;;;;;;;;;;;;;;;;;;;;
2023/02/20 07:48:44;;;;;;;7.60;5.80;;;;;;;5.00;76.07;100501.09;126785;1301;114939;-65
2023/02/20 07:56:49;;;;;;;12.70;6.60;;;;;;;5.23;75.92;100493.09;125735;1300;636391;-63
2023/02/20 08:00:39;;;;;;;10.60;5.60;;;;;;;5.34;75.96;100492.30;128204;1276;128515;-64
2023/02/20 08:04:42;;;;;;;9.50;5.70;;;;;;;5.44;75.95;100486.55;127747;1293;115302;-64
2023/02/20 08:08:26;;;;;;;;;;;;;;;;;;;;;
2023/02/20 08:11:59;;;;;;;;;;;;;;;;;;;;;
2023/02/20 08:16:02;;;;;;;10.10;7.00;;;;;;;5.80;75.78;100477.29;127537;1284;114903;-65
2023/02/20 08:19:35;;;;;;;;;;;;;;;;;;;;;
2023/02/20 08:23:36;;;;;;;;;;;;;;;;;;;;;
2023/02/20 08:27:46;;;;;;;10.80;6.30;;;;;;;6.22;75.77;100446.73;126512;1296;114951;-66
2023/02/20 08:31:39;;;;;;;8.40;6.50;;;;;;;6.42;76.07;100440.83;126111;1305;114919;-65
2023/02/20 08:35:40;;;;;;;12.50;6.60;;;;;;;6.62;75.85;100439.51;125805;1301;114995;-65
2023/02/20 08:39:38;;;;;;;;;;;;;;;;;;;;;
2023/02/20 08:43:39;;;;;;;10.30;7.10;;;;;;;7.02;75.35;100422.78;126050;1319;116507;-65
2023/02/20 08:47:37;;;;;;;9.00;6.20;;;;;;;7.20;75.10;100418.83;126107;1300;114917;-66
2023/02/20 08:51:35;;;;;;;9.50;6.80;;;;;;;7.38;75.18;100409.50;126421;1295;114832;-65
2023/02/20 08:55:18;;;;;;;9.30;6.70;;;;;;;7.61;75.31;100400.02;125748;1307;114884;-64
2023/02/20 08:59:32;;;;;;;8.80;6.30;;;;;;;7.80;74.93;100386.88;126231;1298;129868;-66
2023/02/20 09:03:21;;;;;;;11.10;7.20;;;;;;;7.96;74.41;100377.04;125960;1293;115479;-66
2023/02/20 09:07:22;;;;;;;9.50;7.10;;;;;;;8.13;74.46;100368.92;125589;1305;114896;-66
2023/02/20 09:11:24;;;;;;;9.60;6.70;;;;;;;8.26;74.10;100364.35;125166;1328;114908;-66
2023/02/20 09:14:59;;;;;;;;;;;;;;;;;;;;;
2023/02/20 09:18:54;;;;;;;;;;;;;;;;;;;;;
2023/02/20 09:30:54;;;;;;;11.30;6.60;;;;;;;8.76;73.52;100349.92;129180;1291;127638;-66
2023/02/20 09:34:50;;;;;;;;;;;;;;;;;;;;;
2023/02/20 09:38:32;;;;;;;;;;;;;;;;;;;;;
2023/02/20 09:46:49;;;;;;;9.70;6.80;;;;;;;9.23;73.39;100311.05;127046;1286;116136;-66
2023/02/20 09:50:41;;;;;;;9.00;6.60;;;;;;;9.39;73.21;100304.84;126568;1311;114960;-65
2023/02/20 09:55:01;;;;;;;6.70;5.50;;;;;;;9.55;72.97;100294.33;126218;1299;129538;-66
2023/02/20 09:58:56;;;;;;;;;;;;;;;;;;;;;
2023/02/20 10:02:59;;;;;;;7.90;6.10;;;;;;;9.79;72.41;100289.14;126263;1309;114858;-67
2023/02/20 10:07:01;;;;;;;7.40;5.70;;;;;;;9.88;72.23;100286.73;126080;1309;114881;-66
2023/02/20 10:11:02;;;;;;;7.80;6.00;;;;;;;9.97;71.84;100264.22;125713;1298;114957;-66
2023/02/20 10:15:10;;;;;;;10.20;6.30;;;;;;;9.99;71.28;100229.49;125981;1296;128246;-66
2023/02/20 10:19:22;;;;;;;13.10;8.90;;;;;;;10.04;71.14;100219.42;127017;1292;114948;-67
2023/02/20 10:24:00;;;;;;;;;;;;;;;;;;;;;
2023/02/20 10:28:06;;;;;;;11.70;7.50;;;;;;;10.24;70.59;100212.96;129185;1285;114799;-65
2023/02/20 10:32:19;;;;;;;9.70;7.20;;;;;;;10.27;70.41;100198.52;129480;1277;114976;-67
2023/02/20 10:36:17;;;;;;;15.00;9.10;;;;;;;10.34;70.00;100171.21;128439;1296;128239;-66
2023/02/20 10:40:07;;;;;;;11.80;7.40;;;;;;;10.45;70.10;100151.76;128146;1275;115341;-66
2023/02/20 10:44:14;;;;;;;;;;;;;;;;;;;;;
2023/02/20 10:48:24;;;;;;;8.20;4.40;;;;;;;10.78;68.90;100129.52;128875;1290;114869;-66
2023/02/20 10:52:19;;;;;;;9.70;6.10;;;;;;;10.97;68.69;100122.63;129053;1269;114658;-66
2023/02/20 10:56:34;;;;;;;11.40;6.60;;;;;;;11.16;68.43;100096.19;128826;1274;128081;-66
2023/02/20 11:00:37;;;;;;;;;;;;;;;;;;;;;
2023/02/20 11:04:52;;;;;;;7.70;5.70;;;;;;;11.48;67.43;100106.42;128065;1283;114956;-66
2023/02/20 11:08:56;;;;;;;9.70;6.60;;;;;;;11.56;66.81;100109.38;127907;1283;116401;-67
2023/02/20 11:12:48;;;;;;;8.10;5.70;;;;;;;11.57;66.71;100092.13;127260;1303;114967;-65
2023/02/20 11:16:34;;;;;;;11.60;5.30;;;;;;;11.61;66.38;100074.34;127134;1289;130138;-65
2023/02/20 11:20:41;;;;;;;;;;;;;;;;;;;;;
2023/02/20 11:24:23;;;;;;;7.20;4.80;;;;;;;11.77;66.00;100066.11;126882;1305;114898;-66
2023/02/20 11:28:18;;;;;;;9.60;5.30;;;;;;;11.87;65.80;100055.87;127220;1284;114833;-66
2023/02/20 11:32:16;;;;;;;;;;;;;;;;;;;;;
2023/02/20 11:36:11;;;;;;;;;;;;;;;;;;;;;
2023/02/20 11:40:21;;;;;;;6.00;4.20;;;;;;;12.16;65.56;100037.91;126469;1295;115500;-65
2023/02/20 11:48:52;;;;;;;5.50;4.00;;;;;;;12.42;65.13;100012.31;125915;1300;114949;-65
2023/02/20 11:52:46;;;;;;;3.90;3.20;;;;;;;12.46;64.31;99999.39;127180;1288;114887;-70
2023/02/20 11:56:38;;;;;;;5.00;3.30;;;;;;;12.47;63.46;99983.90;126346;1292;129904;-66
2023/02/20 12:00:40;;;;;;;;;;;;;;;;;;;;;
2023/02/20 12:04:42;;;;;;;4.30;2.40;;;;;;;12.59;62.94;99955.35;126209;1297;114956;-66
2023/02/20 12:08:49;;;;;;;7.80;2.50;;;;;;;12.65;62.81;99940.65;125901;1297;114918;-67
2023/02/20 12:12:27;;;;;;;;;;;;;;;;;;;;;
2023/02/20 12:16:25;;;;;;;;;;;;;;;;;;;;;
2023/02/20 12:20:33;;;;;;;;;;;;;;;;;;;;;
2023/02/20 12:24:33;;;;;;;7.00;2.60;;;;;;;12.71;61.03;99896.37;127267;1292;114961;-65
2023/02/20 12:28:32;;;;;;;;;;;;;;;;;;;;;
2023/02/20 12:32:44;;;;;;;6.30;2.20;;;;;;;12.69;60.75;99869.98;127278;1291;114920;-68
2023/02/20 12:36:57;;;;;;;3.70;2.60;;;;;;;12.73;60.72;99860.95;128275;1276;128986;-65
2023/02/20 12:40:58;;;;;;;;;;;;;;;;;;;;;
2023/02/20 12:45:06;;;;;;;;;;;;;;;;;;;;;
2023/02/20 12:49:21;;;;;;;3.40;2.40;;;;;;;13.03;60.11;99825.30;128885;1270;115231;-67
2023/02/20 12:53:22;;;;;;;;;;;;;;;;;;;;;
2023/02/20 12:57:35;;;;;;;3.40;2.30;;;;;;;13.19;59.34;99807.90;129233;1277;129102;-65
2023/02/20 13:01:44;;;;;;;2.60;2.20;;;;;;;13.23;59.00;99806.55;129183;1281;115220;-66
2023/02/20 13:05:23;;;;;;;4.90;2.50;;;;;;;13.19;58.69;99780.80;129241;1268;115104;-68
2023/02/20 13:09:34;;;;;;;;;;;;;;;;;;;;;
2023/02/20 13:13:16;;;;;;;5.00;2.70;;;;;;;13.19;58.53;99770.03;129157;1273;114888;-77
2023/02/20 13:17:03;;;;;;;3.20;2.20;;;;;;;13.25;58.28;99763.05;129083;1275;127639;-71
2023/02/20 13:21:08;;;;;;;4.20;2.60;;;;;;;13.26;58.16;99762.05;128703;1268;115256;-71
2023/02/20 13:33:03;;;;;;;3.30;2.10;;;;;;;13.06;56.76;99742.95;128042;1279;114944;-73
2023/02/20 13:36:55;;;;;;;4.80;2.40;;;;;;;13.00;56.94;99742.65;127889;1282;128649;-75
2023/02/20 13:41:08;;;;;;;4.60;2.70;;;;;;;13.01;57.00;99729.88;129108;1275;114941;-74
2023/02/20 13:49:12;;;;;;;3.30;2.40;;;;;;;12.94;56.88;99721.91;128920;1285;114908;-72
2023/02/20 13:53:23;;;;;;;2.10;1.70;;;;;;;12.87;55.73;99702.69;128867;1276;114874;-73
2023/02/20 13:57:28;;;;;;;;;;;;;;;;;;;;;
2023/02/20 14:01:34;;;;;;;;;;;;;;;;;;;;;
2023/02/20 14:05:30;;;;;;;;;;;;;;;;;;;;;
2023/02/20 14:09:44;;;;;;;;;;;;;;;;;;;;;
2023/02/20 14:14:18;;;;;;;3.30;2.10;;;;;;;12.63;55.22;99723.45;125532;1299;638638;-72
2023/02/20 14:18:20;;;;;;;;;;;;;;;;;;;;;
2023/02/20 14:21:57;;;;;;;4.80;2.20;;;;;;;12.50;55.51;99714.88;126397;1293;114844;-73
2023/02/20 14:26:01;;;;;;;4.30;1.80;;;;;;;12.46;55.54;99706.36;122011;1312;5460997;-72
2023/02/20 14:29:53;;;;;;;3.40;1.70;;;;;;;12.42;55.47;99702.52;124973;1307;114894;-72
2023/02/20 14:33:55;;;;;;;2.70;1.60;;;;;;;12.39;55.51;99695.35;124502;1321;114941;-72
2023/02/20 14:38:06;;;;;;;;;;;;;;;;;;;;;
2023/02/20 14:42:18;;;;;;;5.50;2.60;;;;;;;12.36;55.93;99693.09;123926;1333;115016;-72
2023/02/20 14:50:11;;;;;;;;;;;;;;;;;;;;;
2023/02/20 14:54:02;;;;;;;8.00;3.00;;;;;;;12.22;56.09;99697.16;129195;1282;127798;-74
2023/02/20 14:57:44;;;;;;;14.30;6.00;;;;;;;12.21;56.38;99693.88;128943;1272;115237;-73
2023/02/20 15:01:53;;;;;;;;;;;;;;;;;;;;;
2023/02/20 15:05:51;;;;;;;;;;;;;;;;;;;;;
2023/02/20 15:09:54;;;;;;;19.00;9.80;;;;;;;12.13;56.78;99707.82;128504;1277;114771;-76
2023/02/20 15:13:23;;;;;;;13.40;7.20;;;;;;;12.08;57.40;99716.19;128386;1296;115014;-74
2023/02/20 15:17:10;;;;;;;5.30;3.10;;;;;;;12.02;57.14;99716.75;128078;1289;128303;-75
2023/02/20 15:21:14;;;;;;;5.80;4.00;;;;;;;11.98;57.47;99718.45;128946;1288;114819;-76
2023/02/20 15:29:21;;;;;;;3.90;2.10;;;;;;;11.86;57.64;99722.70;129334;1271;114914;-72
2023/02/20 15:32:49;;;;;;;3.70;2.20;;;;;;;11.81;57.66;99725.92;128490;1276;114969;-73
2023/02/20 15:36:35;;;;;;;;;;;;;;;;;;;;;
2023/02/20 15:39:59;;;;;;;;;;;;;;;11.76;58.24;99726.79;127725;1285;114957;-76
2023/02/20 15:43:46;;;;;;;4.20;1.90;;;;;;;11.73;58.58;99724.84;128568;1280;114888;-77
2023/02/20 15:47:37;;;;;;;6.30;3.80;;;;;;;11.70;58.57;99728.58;128567;1275;114915;-78
2023/02/20 15:51:21;;;;;;;5.60;3.90;;;;;;;11.69;58.81;99728.79;128788;1275;114887;-73
2023/02/20 15:55:15;;;;;;;4.70;2.80;;;;;;;11.69;58.95;99730.09;129016;1276;128278;-74
2023/02/20 15:59:13;;;;;;;4.60;2.40;;;;;;;11.67;59.44;99731.83;128180;1296;115358;-75
2023/02/20 16:03:12;;;;;;;;;;;;;;;;;;;;;
2023/02/20 16:07:04;;;;;;;3.40;2.30;;;;;;;11.63;59.85;99738.66;128637;1287;116018;-76
2023/02/20 16:10:55;;;;;;;3.60;2.40;;;;;;;11.62;59.79;99753.64;128627;1288;114778;-76
2023/02/20 16:14:28;;;;;;;4.70;3.30;;;;;;;11.60;59.91;99755.50;128397;1282;128479;-77
2023/02/20 16:18:32;;;;;;;4.10;2.80;;;;;;;11.60;60.29;99757.30;128347;1287;115400;-72
2023/02/20 16:21:54;;;;;;;3.90;2.50;;;;;;;11.57;60.40;99755.17;127411;1292;115020;-73
2023/02/20 16:25:47;;;;;;;;;;;;;;;;;;;;;
2023/02/20 16:29:47;;;;;;;;;;;;;;;;;;;;;
2023/02/20 16:33:49;;;;;;;4.70;2.50;;;;;;;11.51;60.62;99765.20;125874;1311;128657;-68
2023/02/20 16:37:49;;;;;;;3.90;2.40;;;;;;;11.45;60.75;99764.49;126268;1314;115216;-67
2023/02/20 16:41:07;;;;;;;5.60;2.50;;;;;;;11.40;60.87;99770.16;126305;1314;114869;-72
2023/02/20 16:45:02;;;;;;;3.20;2.10;;;;;;;11.34;61.00;99783.00;126119;1301;114896;-70
2023/02/20 16:48:57;;;;;;;5.00;3.00;;;;;;;11.28;61.13;99785.89;126784;1292;114850;-67
2023/02/20 16:53:05;;;;;;;;;;;;;;;;;;;;;
2023/02/20 16:57:07;;;;;;;3.00;2.00;;;;;;;11.18;61.38;99786.48;126132;1308;115365;-70
2023/02/20 17:00:30;;;;;;;;;;;;;;;;;;;;;
2023/02/20 17:04:23;;;;;;;5.70;2.00;;;;;;;11.10;61.71;99798.95;126097;1298;114989;-72
2023/02/20 17:08:08;;;;;;;2.70;1.60;;;;;;;11.06;61.87;99799.38;126255;1294;115032;-71
2023/02/20 17:12:02;;;;;;;3.30;2.00;;;;;;;11.03;61.80;99801.34;126461;1296;128037;-68
2023/02/20 17:15:39;;;;;;;4.20;1.90;;;;;;;10.99;62.14;99806.60;125877;1311;115346;-69
2023/02/20 17:19:31;;;;;;;7.40;2.40;;;;;;;10.94;62.27;99813.81;126130;1308;114967;-70
2023/02/20 17:23:32;;;;;;;3.90;2.50;;;;;;;10.90;62.35;99817.13;125947;1313;114963;-69
2023/02/20 17:27:33;;;;;;;4.60;2.50;;;;;;;10.83;62.37;99821.81;126260;1314;115072;-70
2023/02/20 17:31:36;;;;;;;3.20;2.10;;;;;;;10.79;62.47;99830.09;125631;1311;130409;-69
2023/02/20 17:35:23;;;;;;;;;;;;;;;;;;;;;
2023/02/20 17:39:25;;;;;;;4.90;2.20;;;;;;;10.69;63.00;99834.77;126155;1290;114961;-69
2023/02/20 17:43:15;;;;;;;;;;;;;;;;;;;;;
2023/02/20 17:51:43;;;;;;;4.20;2.70;;;;;;;10.54;63.29;99847.05;126185;1297;638883;-68
2023/02/20 17:55:38;;;;;;;3.90;2.40;;;;;;;10.45;63.40;99848.77;128276;1283;128833;-67
2023/02/20 17:59:42;;;;;;;4.90;2.70;;;;;;;10.37;63.63;99847.42;128398;1297;115198;-68
2023/02/20 18:03:28;;;;;;;;;;;;;;;;;;;;;
2023/02/20 18:07:33;;;;;;;5.00;2.20;;;;;;;10.21;64.11;99852.58;128331;1276;114816;-69
2023/02/20 18:11:28;;;;;;;;;;;;;;;;;;;;;
2023/02/20 18:15:21;;;;;;;;;;;;;;;;;;;;;
2023/02/20 18:19:16;;;;;;;;;;;;;;;;;;;;;
2023/02/20 18:23:35;;;;;;;8.00;3.30;;;;;;;9.97;64.68;99814.63;125759;1303;639459;-69
2023/02/20 18:27:31;;;;;;;5.80;2.90;;;;;;;9.95;64.89;99817.05;128055;1301;129116;-69
2023/02/20 18:31:27;;;;;;;3.20;1.40;;;;;;;9.95;65.08;99809.58;127103;1307;115317;-68
2023/02/20 18:35:18;;;;;;;7.30;4.30;;;;;;;9.94;65.22;99805.52;124401;1290;5475331;-70
2023/02/20 18:39:16;;;;;;;;;;;;;;;;;;;;;
2023/02/20 18:43:07;;;;;;;6.40;3.70;;;;;;;9.94;65.35;99801.08;126101;1297;114939;-68
2023/02/20 18:47:09;;;;;;;7.40;3.40;;;;;;;9.95;65.23;99805.13;125480;1302;128076;-69
2023/02/20 18:51:00;;;;;;;8.60;4.70;;;;;;;9.94;65.27;99803.58;124428;1314;115359;-69
2023/02/20 18:59:26;;;;;;;;;;;;;;;;;;;;;
2023/02/20 19:03:18;;;;;;;6.30;4.10;;;;;;;9.96;65.35;99799.36;127648;1283;115254;-68
2023/02/20 19:07:19;;;;;;;8.10;3.90;;;;;;;9.95;65.45;99796.16;123409;1283;5471378;-68
2023/02/20 19:11:14;;;;;;;5.40;3.70;;;;;;;9.94;65.58;99776.83;126753;1294;114915;-69
2023/02/20 19:15:05;;;;;;;7.20;3.90;;;;;;;9.92;65.66;99773.52;126358;1299;115019;-71
2023/02/20 19:18:25;;;;;;;5.90;3.90;;;;;;;9.92;65.84;99759.98;125827;1312;129620;-67
2023/02/20 19:26:01;;;;;;;;;;;;;;;;;;;;;
2023/02/20 19:29:19;;;;;;;;;;;;;;;;;;;;;
2023/02/20 19:32:50;;;;;;;5.50;3.90;;;;;;;9.88;65.76;99766.41;124967;1318;114965;-72
2023/02/20 19:36:57;;;;;;;5.80;4.50;;;;;;;9.87;65.74;99768.98;124959;1313;127687;-68
2023/02/20 19:40:40;;;;;;;6.00;4.50;;;;;;;9.86;66.04;99766.17;124836;1310;114937;-68
2023/02/20 19:44:07;;;;;;;;;;;;;;;9.85;65.99;99758.77;125480;1310;114868;-69
2023/02/20 19:47:49;;;;;;;;;;;;;;;9.83;65.99;99752.27;125891;1295;116478;-71
2023/02/20 19:51:37;;;;;;;;;;;;;;;;;;;;;
2023/02/20 19:54:59;;;;;;;7.60;4.30;;;;;;;9.79;65.91;99756.92;125871;1314;129782;-71
2023/02/20 19:58:53;;;;;;;8.00;4.60;;;;;;;9.80;65.84;99752.77;126226;1298;115304;-69
2023/02/20 20:02:37;;;;;;;7.50;4.00;;;;;;;9.79;66.04;99760.14;126006;1295;114875;-69
2023/02/20 20:06:02;;;;;;;5.60;3.70;;;;;;;9.79;65.82;99756.24;126425;1292;114957;-69
2023/02/20 20:09:50;;;;;;;6.60;3.50;;;;;;;9.79;65.72;99757.50;126184;1298;114875;-72
2023/02/20 20:13:05;;;;;;;7.20;3.80;;;;;;;9.79;65.76;99757.85;125983;1301;128160;-69
2023/02/20 20:17:05;;;;;;;;;;;;;;;;;;;;;
2023/02/20 20:21:05;;;;;;;6.60;2.90;;;;;;;9.80;65.66;99761.87;126090;1301;115115;-66
2023/02/20 20:24:24;;;;;;;3.80;2.60;;;;;;;9.82;65.40;99755.72;125773;1302;114953;-65
2023/02/20 20:28:11;;;;;;;;;;;;;;;;;;;;;
2023/02/20 20:31:33;;;;;;;4.10;2.20;;;;;;;9.82;65.26;99741.98;126306;1311;129679;-69
2023/02/20 20:34:47;;;;;;;;;;;;;;;;;;;;;
2023/02/20 20:38:16;;;;;;;5.00;2.50;;;;;;;9.82;65.19;99746.42;126540;1309;114888;-70
2023/02/20 20:41:53;;;;;;;;;;;;;;;;;;;;;
2023/02/20 20:45:56;;;;;;;3.10;2.30;;;;;;;9.82;64.76;99742.52;126708;1289;115235;-70
2023/02/20 20:49:47;;;;;;;;;;;;;;;;;;;;;
2023/02/20 20:53:51;;;;;;;4.60;1.90;;;;;;;9.83;64.87;99743.55;126839;1290;116689;-73
2023/02/20 20:57:42;;;;;;;;;;;;;;;;;;;;;
2023/02/20 21:01:40;;;;;;;;;;;;;;;;;;;;;
2023/02/20 21:05:25;;;;;;;;;;;;;;;;;;;;;
2023/02/20 21:09:02;;;;;;;2.60;1.90;;;;;;;9.86;64.95;99743.52;125484;1307;130058;-71
2023/02/20 21:12:47;;;;;;;3.00;2.10;;;;;;;9.87;64.77;99744.15;125385;1307;115433;-68
2023/02/20 21:16:30;;;;;;;5.20;2.50;;;;;;;9.90;64.89;99746.55;125665;1303;114914;-69
2023/02/20 21:20:33;;;;;;;7.90;2.40;;;;;;;9.91;64.93;99740.95;125602;1307;115012;-73
2023/02/20 21:24:15;;;;;;;3.80;2.60;;;;;;;9.92;64.66;99739.13;124926;1313;116555;-74
2023/02/20 21:28:18;;;;;;;4.50;2.10;;;;;;;9.92;65.11;99727.48;124396;1318;129933;-71
2023/02/20 21:31:32;;;;;;;3.10;2.10;;;;;;;9.94;64.77;99725.08;124503;1311;115564;-72
2023/02/20 21:35:03;;;;;;;2.80;2.00;;;;;;;9.94;64.90;99717.76;125188;1307;115157;-71
2023/02/20 21:38:39;;;;;;;;;;;;;;;;;;;;;
2023/02/20 21:45:54;;;;;;;;;;;;;;;;;;;;;
2023/02/20 21:49:36;;;;;;;2.60;2.10;;;;;;;9.94;65.15;99718.98;125787;1300;114998;-68
2023/02/20 21:53:34;;;;;;;4.60;2.50;;;;;;;9.95;65.03;99718.62;125227;1307;115221;-71
2023/02/20 21:57:22;;;;;;;4.40;2.50;;;;;;;9.93;65.13;99718.72;125562;1307;114767;-71
